Flight Track Log - Related Links

Times and Time Zones

All times are in EDT time to prevent confusion due to time zone crossing. See the N242SR flight status page for this flight to view local times or setup timezone preferences in your user account.

Time Position Orientation Groundspeed Altitude Reporting Facility
EDT Latitude Longitude Course Direction KTS MPH feet Rate Location/Type
Wed 12:57:17 PM 42.4500 -71.3000 216° Southwest 149 171 900  Level KA90
Wed 12:57:47 PM 42.4333 -71.3167 216° Southwest 114 131 1,400 875 Climbing KA90
Wed 12:58:53 PM 42.4000 -71.3500 216° Southwest 128 147 2,300 810 Climbing KA90
Wed 12:59:53 PM 42.3833 -71.3667 216° Southwest 127 146 3,100 400 Climbing KA90
Wed 01:00:53 PM 42.3500 -71.4167 228° Southwest 152 175 3,100 476 Level KA90
Wed 01:01:59 PM 42.3167 -71.4333 200° South 125 144 4,100 476 Climbing KA90
Wed 01:02:59 PM 42.2833 -71.4667 216° Southwest 152 175 4,100 167 Level KA90
Wed 01:03:47 PM 42.2508 -71.5089 224° Southwest 151 174 4,400 586 Climbing Boston Center
Wed 01:05:12 PM 42.2261 -71.5653 239° Southwest 126 145 5,400 729 Climbing Boston Center
Wed 01:06:07 PM 42.2097 -71.6019 239° Southwest 118 136 6,100 365 Climbing Boston Center
Wed 01:07:07 PM 42.1956 -71.6469 247° West 132 152 6,100  Level Boston Center
Wed 01:08:08 PM 42.1833 -71.7033 254° West 149 171 6,100  Level Boston Center
Wed 01:09:15 PM 42.1711 -71.7594 254° West 146 168 6,100  Level Boston Center
Wed 01:10:10 PM 42.1589 -71.8072 251° West 147 169 6,100  Level Boston Center
Wed 01:11:04 PM 42.1467 -71.8519 250° West 144 166 6,100  Level Boston Center
Wed 01:12:11 PM 42.1325 -71.9108 252° West 145 167 6,100  Level Boston Center
Wed 01:13:06 PM 42.1222 -71.9558 253° West 144 166 6,100  Level Boston Center
Wed 01:14:13 PM 42.1058 -72.0092 248° West 142 163 6,100  Level Boston Center
Wed 01:15:13 PM 42.0808 -72.0542 233° Southwest 145 167 6,100  Level Boston Center
Wed 01:16:08 PM 42.0539 -72.0850 220° Southwest 144 166 6,100  Level Boston Center
Wed 01:17:09 PM 42.0228 -72.1186 219° Southwest 144 166 6,100  Level Boston Center
Wed 01:18:10 PM 41.9958 -72.1525 223° Southwest 142 163 6,100  Level Boston Center
Wed 01:19:16 PM 41.9583 -72.1944 220° Southwest 143 165 6,100  Level Boston Center
Wed 01:20:23 PM 41.9250 -72.2308 219° Southwest 144 166 6,100 -49 Level Boston Center
Wed 01:21:18 PM 41.8958 -72.2617 218° Southwest 149 171 6,000  Descending Boston Center
Wed 01:22:19 PM 41.8708 -72.2950 225° Southwest 139 160 6,100 47 Climbing Boston Center
Wed 01:23:25 PM 41.8356 -72.3342 220° Southwest 138 159 6,100  Level Boston Center
Wed 01:24:32 PM 41.8022 -72.3706 219° Southwest 141 162 6,100  Level Boston Center
Wed 01:25:27 PM 41.7731 -72.4011 218° Southwest 142 163 6,100  Level Boston Center
Wed 01:26:28 PM 41.7439 -72.4317 218° Southwest 143 165 6,100  Level Boston Center
Wed 01:27:28 PM 41.7128 -72.4678 221° Southwest 141 162 6,100  Level Boston Center
Wed 01:28:29 PM 41.6814 -72.5039 221° Southwest 143 165 6,100  Level Boston Center
Wed 01:29:30 PM 41.6500 -72.5372 218° Southwest 139 160 6,100  Level Boston Center
Wed 01:31:17 PM 41.5833 -72.5667 198° South 148 170 6,100  Level New TRACON
Wed 01:33:12 PM 41.5167 -72.6000 201° Southwest 150 173 6,100  Level New TRACON
Wed 01:34:12 PM 41.4667 -72.6167 194° South 147 169 6,100  Level New TRACON
Wed 01:35:12 PM 41.4333 -72.6333 201° Southwest 145 167 6,100  Level New TRACON
Wed 01:36:12 PM 41.4000 -72.6500 201° Southwest 144 166 6,100  Level New TRACON
Wed 01:37:12 PM 41.3500 -72.6667 194° South 144 166 6,100  Level New TRACON
Wed 01:38:12 PM 41.3167 -72.6833 201° Southwest 145 167 6,100  Level New TRACON
Wed 01:39:18 PM 41.3000 -72.7333 246° West 149 171 6,100  Level New TRACON
Wed 01:40:18 PM 41.2833 -72.7833 246° West 144 166 6,100  Level New TRACON
Wed 01:41:18 PM 41.2667 -72.8333 246° West 141 162 6,100  Level New TRACON
Wed 01:42:12 PM 41.2500 -72.8667 236° Southwest 142 163 6,100  Level New TRACON
Wed 01:43:12 PM 41.2333 -72.9167 246° West 144 166 6,100  Level New TRACON
Wed 01:44:12 PM 41.2167 -72.9667 246° West 138 159 6,100  Level New TRACON
Wed 01:45:12 PM 41.2000 -73.0167 246° West 138 159 6,100  Level New TRACON
Wed 01:46:12 PM 41.1833 -73.0667 246° West 143 165 6,100  Level New TRACON
Wed 01:47:12 PM 41.1667 -73.1000 236° Southwest 142 163 6,100  Level New TRACON
Wed 01:48:12 PM 41.1667 -73.1667 270° West 148 170 6,100 -200 Level New TRACON
Wed 01:49:12 PM 41.1667 -73.2167 270° West 160 184 5,700 -450 Descending New TRACON
Wed 01:50:12 PM 41.1667 -73.2833 270° West 164 189 5,200 -500 Descending New TRACON
Wed 01:51:12 PM 41.1833 -73.3333 294° West 162 186 4,700 -500 Descending New TRACON
Wed 01:52:12 PM 41.1833 -73.4000 270° West 157 181 4,200 -500 Descending New TRACON
Wed 01:53:12 PM 41.1833 -73.4500 270° West 157 181 3,700 -500 Descending New TRACON
Wed 01:54:12 PM 41.1833 -73.5167 270° West 162 186 3,200 -316 Descending New TRACON
Wed 01:55:06 PM 41.2000 -73.5667 294° West 147 169 3,100 -53 Descending New TRACON
Wed 01:56:06 PM 41.2000 -73.6167 270° West 139 160 3,100 -250 Level New TRACON
Wed 01:57:06 PM 41.2000 -73.6667 270° West 151 174 2,600 -500 Descending New TRACON
Wed 01:58:06 PM 41.2000 -73.7333 270° West 156 180 2,100 -250 Descending New TRACON
Wed 01:59:06 PM 41.2000 -73.7667 270° West 139 160 2,100  Level New TRACON
Wed 02:00:06 PM 41.1667 -73.7833 201° Southwest 130 150 2,100 -200 Level New TRACON
Wed 02:01:06 PM 41.1333 -73.7500 143° Southeast 118 136 1,700 -421 Descending New TRACON
Wed 02:02:00 PM 41.1167 -73.7333 143° Southeast 95 109 1,300 -450 Descending New TRACON
Wed 02:03:06 PM 41.0833 -73.7167 159° South 89 102 800 -455 Descending New TRACON
Wed 02:05:00 PM 41.0667 -73.7000 169° South  Level FlightAware
Wed 02:12:00 PM 41.0669 -73.7076 169° South  Level Estimated

Login

Don't have an account? Register now (free) for customized features, flight alerts, and more!